Time;durP1;ratioP1;P1;durP2;ratioP2;P2;SDS_P1;SDS_P2;PMS_P1;PMS_P2;Temp;Humidity;BMP_temperature;BMP_pressure;BME280_temperature;BME280_humidity;BME280_pressure;Samples;Min_cycle;Max_cycle;Signal;HPM_P1;HPM_P2
2022/10/18 00:00:39;;;;;;;8.43;3.38;;;17.80;99.90;;;;;;2091277;28;20365;-73
2022/10/18 00:01:40;;;;;;;4.68;3.53;;;17.80;99.90;;;;;;2091232;28;20210;-73
2022/10/18 00:02:41;;;;;;;6.07;3.17;;;17.80;99.90;;;;;;2088959;28;20017;-73
2022/10/18 00:03:41;;;;;;;5.47;3.33;;;17.80;99.90;;;;;;2099027;28;20020;-73
2022/10/18 00:04:42;;;;;;;17.35;3.13;;;17.80;99.90;;;;;;2099023;28;20089;-73
2022/10/18 00:05:42;;;;;;;3.92;3.05;;;17.80;99.90;;;;;;2090006;28;20101;-74
2022/10/18 00:06:43;;;;;;;3.97;2.70;;;17.80;99.90;;;;;;2089343;28;20035;-73
2022/10/18 00:07:44;;;;;;;6.70;3.33;;;17.80;99.90;;;;;;2090779;28;20127;-73
2022/10/18 00:08:44;;;;;;;4.47;3.03;;;17.80;99.90;;;;;;2088690;28;20032;-73
2022/10/18 00:09:45;;;;;;;7.10;3.53;;;17.80;99.90;;;;;;2091448;28;20039;-73
2022/10/18 00:10:46;;;;;;;4.63;2.60;;;17.80;99.90;;;;;;2090944;28;20102;-73
2022/10/18 00:11:46;;;;;;;4.82;2.90;;;17.80;99.90;;;;;;2090380;28;20505;-73
2022/10/18 00:12:47;;;;;;;3.05;2.80;;;17.80;99.90;;;;;;2093099;28;20138;-73
2022/10/18 00:13:47;;;;;;;4.35;3.17;;;17.80;99.90;;;;;;2092583;28;20024;-73
2022/10/18 00:14:49;;;;;;;4.10;3.10;;;17.80;99.90;;;;;;2089627;28;20120;-73
2022/10/18 00:15:52;;;;;;;5.93;3.05;;;17.80;99.90;;;;;;2089765;28;20060;-73
2022/10/18 00:16:53;;;;;;;4.80;3.13;;;17.80;99.90;;;;;;2090973;28;20032;-73
2022/10/18 00:17:53;;;;;;;3.08;2.67;;;17.80;99.90;;;;;;2091646;28;20029;-73
2022/10/18 00:18:54;;;;;;;3.45;2.70;;;17.80;99.90;;;;;;2090941;28;20027;-73
2022/10/18 00:19:54;;;;;;;4.45;2.90;;;17.80;99.90;;;;;;2089349;28;20023;-73
2022/10/18 00:20:57;;;;;;;4.20;3.08;;;17.80;99.90;;;;;;2090868;28;20020;-73
2022/10/18 00:21:57;;;;;;;2.97;2.60;;;17.80;99.90;;;;;;2089780;28;20028;-73
2022/10/18 00:22:58;;;;;;;3.20;2.50;;;17.80;99.90;;;;;;2090316;28;20036;-73
2022/10/18 00:23:59;;;;;;;4.15;2.78;;;17.80;99.90;;;;;;2089837;28;20404;-73
2022/10/18 00:24:59;;;;;;;6.25;3.38;;;17.80;99.90;;;;;;2089391;28;20120;-73
2022/10/18 00:26:14;;;;;;;5.43;3.20;;;17.80;99.90;;;;;;2089573;28;20062;-73
2022/10/18 00:27:14;;;;;;;8.70;2.88;;;17.80;99.90;;;;;;2093515;28;20029;-73
2022/10/18 00:28:15;;;;;;;4.40;2.97;;;17.80;99.90;;;;;;2090367;28;20538;-73
2022/10/18 00:29:16;;;;;;;5.00;2.97;;;17.80;99.90;;;;;;2090789;28;20036;-73
2022/10/18 00:30:16;;;;;;;6.55;3.65;;;17.80;99.90;;;;;;2091794;28;20027;-73
2022/10/18 00:31:32;;;;;;;5.35;2.90;;;17.80;99.90;;;;;;2092181;28;20127;-73
2022/10/18 00:32:36;;;;;;;4.18;2.90;;;17.80;99.90;;;;;;2091918;28;20360;-73
2022/10/18 00:33:37;;;;;;;6.78;2.88;;;17.80;99.90;;;;;;2095174;28;20862;-73
2022/10/18 00:34:39;;;;;;;3.10;2.80;;;17.80;99.90;;;;;;2099027;28;20455;-73
2022/10/18 00:35:39;;;;;;;4.80;3.00;;;17.80;99.90;;;;;;2089816;28;20021;-73
2022/10/18 00:36:41;;;;;;;4.00;3.00;;;17.80;99.90;;;;;;2091784;28;20021;-73
2022/10/18 00:37:41;;;;;;;5.10;2.88;;;17.80;99.90;;;;;;2090355;28;20350;-73
2022/10/18 00:38:43;;;;;;;4.40;3.10;;;17.80;99.90;;;;;;2090590;28;20114;-73
2022/10/18 00:39:43;;;;;;;4.93;2.95;;;17.80;99.90;;;;;;2089445;28;20056;-73
2022/10/18 00:40:44;;;;;;;4.55;2.80;;;17.80;99.90;;;;;;2089264;28;20488;-73
2022/10/18 00:41:45;;;;;;;4.50;2.83;;;17.80;99.90;;;;;;2090595;28;20571;-73
2022/10/18 00:42:45;;;;;;;5.72;3.00;;;17.80;99.90;;;;;;2090695;28;20021;-73
2022/10/18 00:44:12;;;;;;;3.13;2.83;;;17.80;99.90;;;;;;2083752;28;20025;-73
2022/10/18 00:45:22;;;;;;;3.65;3.13;;;17.80;99.90;;;;;;2091977;28;20029;-73
2022/10/18 00:46:24;;;;;;;5.55;2.95;;;17.80;99.90;;;;;;2091618;28;20596;-73
2022/10/18 00:47:25;;;;;;;6.75;3.10;;;17.80;99.90;;;;;;2091280;28;20028;-73
2022/10/18 00:48:26;;;;;;;4.82;2.50;;;17.80;99.90;;;;;;2091820;28;20017;-73
2022/10/18 00:49:35;;;;;;;6.88;3.20;;;17.80;99.90;;;;;;2092022;28;20534;-73
2022/10/18 00:50:35;;;;;;;3.70;2.85;;;17.80;99.90;;;;;;2093014;28;20015;-73
2022/10/18 00:51:43;;;;;;;2.40;2.20;;;17.80;99.90;;;;;;2094177;28;20020;-74
2022/10/18 00:52:51;;;;;;;3.65;2.90;;;17.80;99.90;;;;;;2090795;28;20062;-73
2022/10/18 00:53:51;;;;;;;7.30;2.90;;;17.80;99.90;;;;;;2088925;28;20595;-73
2022/10/18 00:54:55;;;;;;;5.43;3.08;;;17.80;99.90;;;;;;2090055;28;20459;-74
2022/10/18 00:55:56;;;;;;;2.85;2.30;;;17.80;99.90;;;;;;2090518;28;20385;-73
2022/10/18 00:56:57;;;;;;;5.22;2.83;;;17.80;99.90;;;;;;2092019;28;20047;-73
2022/10/18 00:57:58;;;;;;;5.53;3.20;;;17.80;99.90;;;;;;2089832;28;20136;-73
2022/10/18 00:58:59;;;;;;;3.78;3.30;;;17.80;99.90;;;;;;2090249;28;20028;-74
2022/10/18 01:00:00;;;;;;;3.25;2.97;;;17.80;99.90;;;;;;2090425;28;20840;-73
2022/10/18 01:01:00;;;;;;;4.50;3.22;;;17.80;99.90;;;;;;2090230;28;20060;-74
2022/10/18 01:02:02;;;;;;;6.13;3.42;;;17.80;99.90;;;;;;2090347;28;20036;-73
2022/10/18 01:03:03;;;;;;;4.18;2.60;;;17.80;99.90;;;;;;2090565;28;20419;-73
2022/10/18 01:04:03;;;;;;;2.90;2.50;;;17.80;99.90;;;;;;2090207;28;20032;-73
2022/10/18 01:05:05;;;;;;;6.18;2.95;;;17.80;99.90;;;;;;2089628;28;20076;-74
2022/10/18 01:06:07;;;;;;;3.25;2.42;;;17.80;99.90;;;;;;2091701;28;20126;-73
2022/10/18 01:07:48;;;;;;;5.53;2.58;;;17.80;99.90;;;;;;2091102;28;20511;-73
2022/10/18 01:09:07;;;;;;;5.28;2.95;;;17.80;99.90;;;;;;2090552;28;20024;-73
2022/10/18 01:10:47;;;;;;;4.75;3.38;;;17.80;99.90;;;;;;2090024;28;20032;-73
2022/10/18 01:12:00;;;;;;;4.88;2.88;;;17.70;99.90;;;;;;2089550;28;20066;-73
2022/10/18 01:13:24;;;;;;;4.78;2.60;;;17.70;99.90;;;;;;2090473;28;20029;-74
2022/10/18 01:14:37;;;;;;;3.35;2.40;;;17.70;99.90;;;;;;2091360;28;20078;-73
2022/10/18 01:15:49;;;;;;;3.35;2.75;;;17.70;99.90;;;;;;2091044;28;20025;-73
2022/10/18 01:17:00;;;;;;;5.65;2.85;;;17.70;99.90;;;;;;2089973;28;20025;-73
2022/10/18 01:18:13;;;;;;;6.55;2.85;;;17.70;99.90;;;;;;2090095;28;20537;-73
2022/10/18 01:19:37;;;;;;;3.55;2.58;;;17.70;99.90;;;;;;2090279;28;20570;-74
2022/10/18 01:21:03;;;;;;;3.15;2.85;;;17.70;99.90;;;;;;2090307;28;20027;-73
2022/10/18 01:22:31;;;;;;;3.08;2.78;;;17.70;99.90;;;;;;2091052;28;20037;-74
2022/10/18 01:23:37;;;;;;;3.53;2.90;;;17.70;99.90;;;;;;2092418;28;20025;-73
2022/10/18 01:24:57;;;;;;;4.90;3.00;;;17.70;99.90;;;;;;2091943;28;20024;-73
2022/10/18 01:26:17;;;;;;;;;;;17.70;99.90;;;;;;2091210;28;20028;-73
2022/10/18 01:27:49;;;;;;;4.00;2.70;;;17.60;99.90;;;;;;2091483;28;20007;-73
2022/10/18 01:29:00;;;;;;;3.25;2.85;;;17.60;99.90;;;;;;2090350;28;20024;-73
2022/10/18 01:30:13;;;;;;;2.83;2.58;;;17.60;99.90;;;;;;2090986;28;20753;-73
2022/10/18 01:31:21;;;;;;;4.05;3.03;;;17.60;99.90;;;;;;2093848;28;20472;-73
2022/10/18 01:32:26;;;;;;;4.72;2.60;;;17.60;99.90;;;;;;2086115;28;20044;-73
2022/10/18 01:33:31;;;;;;;3.33;3.00;;;17.60;99.90;;;;;;2090606;28;20020;-74
2022/10/18 01:34:35;;;;;;;5.72;2.78;;;17.60;99.90;;;;;;2089715;28;20020;-74
2022/10/18 01:35:42;;;;;;;2.97;2.72;;;17.60;99.90;;;;;;2093711;28;20447;-73
2022/10/18 01:36:50;;;;;;;5.05;3.35;;;17.60;99.90;;;;;;2087052;28;20508;-73
2022/10/18 01:37:53;;;;;;;5.47;2.80;;;17.60;99.90;;;;;;2090346;28;20078;-73
2022/10/18 01:38:57;;;;;;;8.63;3.15;;;17.70;99.90;;;;;;2090109;28;20033;-73
2022/10/18 01:40:02;;;;;;;4.57;3.28;;;17.60;99.90;;;;;;2088834;28;20718;-73
2022/10/18 01:41:05;;;;;;;3.33;3.00;;;17.60;99.90;;;;;;2089604;28;20029;-73
2022/10/18 01:42:10;;;;;;;3.97;2.40;;;17.60;99.90;;;;;;2091342;28;20048;-73
2022/10/18 01:43:12;;;;;;;2.80;2.60;;;17.70;99.90;;;;;;2091029;28;20455;-73
2022/10/18 01:44:20;;;;;;;2.78;2.50;;;17.70;99.90;;;;;;2091742;28;20043;-74
2022/10/18 01:45:23;;;;;;;3.10;2.80;;;17.70;99.90;;;;;;2092717;28;20067;-73
2022/10/18 01:46:25;;;;;;;4.45;2.80;;;17.70;99.90;;;;;;2092249;28;20036;-73
2022/10/18 01:47:26;;;;;;;5.03;2.80;;;17.70;99.90;;;;;;2092364;28;20027;-73
2022/10/18 01:48:29;;;;;;;5.90;3.10;;;17.60;99.90;;;;;;2090264;28;20017;-73
2022/10/18 01:49:30;;;;;;;5.68;3.08;;;17.70;99.90;;;;;;2090382;28;20429;-73
2022/10/18 01:50:33;;;;;;;3.63;2.58;;;17.70;99.90;;;;;;2090196;28;20047;-73
2022/10/18 01:51:34;;;;;;;5.82;2.97;;;17.70;99.90;;;;;;2091558;28;20024;-73
2022/10/18 01:52:34;;;;;;;3.92;3.13;;;17.70;99.90;;;;;;2090524;28;20025;-73
2022/10/18 01:53:35;;;;;;;3.25;2.67;;;17.70;99.90;;;;;;2090568;28;20503;-73
2022/10/18 01:54:40;;;;;;;4.65;2.85;;;17.70;99.90;;;;;;2090557;28;20094;-73
2022/10/18 01:55:47;;;;;;;3.80;2.58;;;17.70;99.90;;;;;;2089106;28;20029;-73
2022/10/18 01:57:05;;;;;;;6.78;3.00;;;17.70;99.90;;;;;;2089096;28;20017;-73
2022/10/18 01:58:30;;;;;;;4.47;2.33;;;17.70;99.90;;;;;;2089105;28;20025;-73
2022/10/18 01:59:50;;;;;;;5.63;2.80;;;17.60;99.90;;;;;;2088436;28;20114;-73
2022/10/18 02:01:02;;;;;;;7.82;2.50;;;17.60;99.90;;;;;;2089969;28;20098;-73
2022/10/18 02:02:28;;;;;;;5.70;2.90;;;17.60;99.90;;;;;;2088885;28;20098;-73
2022/10/18 02:03:29;;;;;;;3.65;2.40;;;17.60;99.90;;;;;;2089738;28;20052;-73
2022/10/18 02:05:07;;;;;;;7.68;3.10;;;17.60;99.90;;;;;;2088518;28;20060;-73
2022/10/18 02:06:21;;;;;;;3.95;2.80;;;17.50;99.90;;;;;;2088708;28;20417;-73
2022/10/18 02:07:32;;;;;;;7.90;3.75;;;17.50;99.90;;;;;;2089956;28;20434;-73
2022/10/18 02:08:54;;;;;;;6.53;3.55;;;17.50;99.90;;;;;;2091121;28;20100;-73
2022/10/18 02:10:06;;;;;;;4.82;3.10;;;17.50;99.90;;;;;;2091366;28;20070;-73
2022/10/18 02:11:11;;;;;;;3.97;2.92;;;17.50;99.90;;;;;;2088771;28;20036;-73
2022/10/18 02:12:14;;;;;;;7.75;2.40;;;17.50;99.90;;;;;;2088580;28;20055;-73
2022/10/18 02:13:17;;;;;;;4.45;3.17;;;17.60;99.90;;;;;;2090372;28;20067;-73
2022/10/18 02:14:20;;;;;;;2.97;2.65;;;17.50;99.90;;;;;;2088262;28;20032;-73
2022/10/18 02:15:25;;;;;;;4.70;3.22;;;17.50;99.90;;;;;;2083045;28;20449;-73
2022/10/18 02:16:32;;;;;;;3.88;3.08;;;17.50;99.90;;;;;;2088812;28;20905;-73
2022/10/18 02:17:33;;;;;;;3.55;3.10;;;17.50;99.90;;;;;;2089895;28;20025;-73
2022/10/18 02:18:38;;;;;;;3.50;3.20;;;17.50;99.90;;;;;;2090517;28;20035;-73
2022/10/18 02:19:46;;;;;;;4.38;2.83;;;17.60;99.90;;;;;;2087796;28;20789;-73
2022/10/18 02:20:47;;;;;;;4.38;2.90;;;17.50;99.90;;;;;;2088798;28;20021;-73
2022/10/18 02:21:50;;;;;;;8.93;3.50;;;17.50;99.90;;;;;;2090116;28;20080;-73
2022/10/18 02:22:54;;;;;;;2.85;2.40;;;17.50;99.90;;;;;;2091955;28;20025;-73
2022/10/18 02:23:57;;;;;;;2.28;2.05;;;17.50;99.90;;;;;;2088556;28;20032;-73
2022/10/18 02:25:03;;;;;;;3.67;2.63;;;17.50;99.90;;;;;;2091249;28;20387;-73
2022/10/18 02:26:04;;;;;;;4.10;2.90;;;17.50;99.90;;;;;;2089103;28;20531;-73
2022/10/18 02:27:05;;;;;;;5.10;3.13;;;17.50;99.90;;;;;;2091549;28;20028;-73
2022/10/18 02:28:06;;;;;;;7.35;3.25;;;17.50;99.90;;;;;;2092070;28;20570;-73
2022/10/18 02:29:07;;;;;;;6.07;3.33;;;17.50;99.90;;;;;;2091685;28;20108;-73
2022/10/18 02:30:09;;;;;;;3.67;3.17;;;17.50;99.90;;;;;;2090891;28;20044;-73
2022/10/18 02:31:26;;;;;;;3.13;2.63;;;17.50;99.90;;;;;;2092395;28;20033;-73
2022/10/18 02:32:57;;;;;;;4.63;3.17;;;17.50;99.90;;;;;;2091561;28;20020;-73
2022/10/18 02:34:09;;;;;;;5.97;2.80;;;17.50;99.90;;;;;;2091383;28;20068;-73
2022/10/18 02:35:19;;;;;;;4.38;2.50;;;17.60;99.90;;;;;;2092489;28;20028;-73
2022/10/18 02:36:44;;;;;;;4.47;2.72;;;17.50;99.90;;;;;;2090710;28;20029;-73
2022/10/18 02:37:47;;;;;;;4.88;2.92;;;17.50;99.90;;;;;;2090902;28;20050;-73
2022/10/18 02:38:53;;;;;;;5.00;3.20;;;17.50;99.90;;;;;;2091694;28;20823;-73
2022/10/18 02:39:54;;;;;;;5.47;3.17;;;17.50;99.90;;;;;;2094071;28;20024;-73
2022/10/18 02:40:54;;;;;;;3.13;2.50;;;17.50;99.90;;;;;;2092050;28;20036;-73
2022/10/18 02:41:56;;;;;;;2.83;2.60;;;17.50;99.90;;;;;;2084792;28;20036;-73
2022/10/18 02:42:57;;;;;;;2.28;2.08;;;17.50;99.90;;;;;;2092552;28;20040;-74
2022/10/18 02:43:58;;;;;;;4.60;2.33;;;17.50;99.90;;;;;;2091912;28;20370;-73
2022/10/18 02:44:58;;;;;;;3.15;2.67;;;17.50;99.90;;;;;;2092693;28;20124;-73
2022/10/18 02:45:59;;;;;;;4.15;2.45;;;17.50;99.90;;;;;;2093058;28;20024;-73
2022/10/18 02:47:00;;;;;;;2.60;2.35;;;17.50;99.90;;;;;;2091542;28;20033;-73
2022/10/18 02:48:00;;;;;;;4.20;2.30;;;17.50;99.90;;;;;;2089884;28;20024;-73
2022/10/18 02:49:01;;;;;;;3.47;2.20;;;17.50;99.90;;;;;;2092676;28;20060;-73
2022/10/18 02:50:01;;;;;;;3.75;2.50;;;17.60;99.90;;;;;;2091613;28;20034;-73
2022/10/18 02:51:02;;;;;;;5.55;3.33;;;17.60;99.90;;;;;;2092538;28;20033;-73
2022/10/18 02:52:03;;;;;;;6.25;3.42;;;17.50;99.90;;;;;;2091697;28;20063;-73
2022/10/18 02:53:03;;;;;;;5.53;2.90;;;17.60;99.90;;;;;;2089805;28;21058;-73
2022/10/18 02:54:04;;;;;;;3.78;2.97;;;17.60;99.90;;;;;;2083502;28;20024;-73
2022/10/18 02:55:06;;;;;;;4.75;2.50;;;17.60;99.90;;;;;;2092421;28;20027;-73
2022/10/18 02:56:07;;;;;;;4.30;2.95;;;17.60;99.90;;;;;;2092270;28;20039;-74
2022/10/18 02:57:08;;;;;;;6.20;3.05;;;17.60;99.90;;;;;;2093711;28;20432;-73
2022/10/18 02:58:09;;;;;;;5.55;3.53;;;17.60;99.90;;;;;;2090125;28;20086;-73
2022/10/18 02:59:10;;;;;;;5.30;3.17;;;17.60;99.90;;;;;;2092608;28;20052;-73
2022/10/18 03:00:11;;;;;;;5.93;3.08;;;17.60;99.90;;;;;;2091258;28;20364;-73
2022/10/18 03:01:12;;;;;;;6.70;3.10;;;17.60;99.90;;;;;;2091869;28;20037;-73
2022/10/18 03:02:12;;;;;;;5.40;3.40;;;17.60;99.90;;;;;;2091015;28;20032;-73
2022/10/18 03:03:13;;;;;;;5.85;3.10;;;17.60;99.90;;;;;;2092490;28;20833;-73
2022/10/18 03:04:14;;;;;;;3.90;3.08;;;17.60;99.90;;;;;;2093125;28;20025;-73
2022/10/18 03:05:14;;;;;;;4.47;2.72;;;17.60;99.90;;;;;;2092991;28;20226;-73
2022/10/18 03:06:15;;;;;;;5.18;2.75;;;17.60;99.90;;;;;;2095175;28;20020;-73
2022/10/18 03:07:15;;;;;;;3.17;2.70;;;17.60;99.90;;;;;;2093888;28;20079;-73
2022/10/18 03:08:16;;;;;;;4.63;2.60;;;17.60;99.90;;;;;;2093857;28;20020;-73
2022/10/18 03:09:17;;;;;;;3.20;2.90;;;17.60;99.90;;;;;;2093107;28;20541;-74
2022/10/18 03:10:17;;;;;;;6.88;2.90;;;17.60;99.90;;;;;;2090972;28;20021;-73
2022/10/18 03:11:18;;;;;;;6.53;2.80;;;17.60;99.90;;;;;;2091289;28;20496;-73
2022/10/18 03:12:18;;;;;;;4.72;2.78;;;17.60;99.90;;;;;;2089230;28;20024;-73
2022/10/18 03:13:19;;;;;;;6.70;3.45;;;17.60;99.90;;;;;;2089341;28;20043;-73
2022/10/18 03:14:20;;;;;;;7.22;3.85;;;17.60;99.90;;;;;;2090537;28;20477;-73
2022/10/18 03:15:20;;;;;;;4.47;3.53;;;17.60;99.90;;;;;;2091886;28;20411;-74
2022/10/18 03:16:21;;;;;;;6.70;3.75;;;17.60;99.90;;;;;;2091337;28;20040;-73
2022/10/18 03:17:21;;;;;;;3.30;3.00;;;17.60;99.90;;;;;;2091804;28;20029;-73
2022/10/18 03:18:22;;;;;;;4.53;2.90;;;17.60;99.90;;;;;;2093065;28;20193;-73
2022/10/18 03:19:22;;;;;;;9.52;3.53;;;17.60;99.90;;;;;;2090638;28;20024;-74
2022/10/18 03:20:23;;;;;;;6.93;3.00;;;17.60;99.90;;;;;;2091329;28;20032;-74
2022/10/18 03:21:23;;;;;;;6.75;2.80;;;17.60;99.90;;;;;;2093600;28;20108;-73
2022/10/18 03:22:24;;;;;;;3.42;2.92;;;17.60;99.90;;;;;;2093450;28;20020;-74
2022/10/18 03:23:24;;;;;;;3.28;2.40;;;17.60;99.90;;;;;;2092013;28;20056;-74
2022/10/18 03:24:25;;;;;;;3.15;2.78;;;17.60;99.90;;;;;;2091494;28;20025;-73
2022/10/18 03:25:25;;;;;;;6.65;2.90;;;17.60;99.90;;;;;;2092817;28;20024;-74
2022/10/18 03:26:26;;;;;;;3.78;3.10;;;17.60;99.90;;;;;;2093893;28;20028;-74
2022/10/18 03:27:26;;;;;;;8.15;2.92;;;17.60;99.90;;;;;;2094792;28;20399;-74
2022/10/18 03:28:27;;;;;;;6.28;3.22;;;17.60;99.90;;;;;;2090943;28;20025;-74
2022/10/18 03:29:27;;;;;;;2.83;2.63;;;17.60;99.90;;;;;;2090991;28;20048;-73
2022/10/18 03:30:28;;;;;;;6.03;2.88;;;17.60;99.90;;;;;;2090990;28;20648;-74
2022/10/18 03:31:28;;;;;;;4.07;3.30;;;17.60;99.90;;;;;;2091886;28;20446;-74
2022/10/18 03:32:29;;;;;;;4.07;3.00;;;17.60;99.90;;;;;;2090207;28;20017;-74
2022/10/18 03:33:31;;;;;;;4.35;3.15;;;17.60;99.90;;;;;;2091994;28;20078;-74
2022/10/18 03:34:32;;;;;;;6.20;3.13;;;17.60;99.90;;;;;;2090672;28;20078;-74
2022/10/18 03:35:32;;;;;;;4.25;3.00;;;17.60;99.90;;;;;;2090980;28;20036;-74
2022/10/18 03:36:33;;;;;;;3.72;2.63;;;17.60;99.90;;;;;;2091938;28;20463;-74
2022/10/18 03:37:34;;;;;;;6.20;3.15;;;17.60;99.90;;;;;;2092367;28;20027;-74
2022/10/18 03:38:34;;;;;;;5.38;3.08;;;17.60;99.90;;;;;;2091456;28;20041;-74
2022/10/18 03:39:35;;;;;;;7.30;3.38;;;17.60;99.90;;;;;;2091628;28;20056;-74
2022/10/18 03:40:36;;;;;;;11.15;3.67;;;17.60;99.90;;;;;;2091712;28;20119;-74
2022/10/18 03:41:36;;;;;;;8.98;3.60;;;17.60;99.90;;;;;;2091514;28;20020;-74
2022/10/18 03:42:37;;;;;;;6.78;2.90;;;17.60;99.90;;;;;;2090773;28;20025;-74
2022/10/18 03:43:37;;;;;;;6.22;2.90;;;17.60;99.90;;;;;;2091216;28;20059;-74
2022/10/18 03:44:38;;;;;;;4.65;2.88;;;17.60;99.90;;;;;;2092253;28;20029;-74
2022/10/18 03:45:39;;;;;;;3.45;2.95;;;17.60;99.90;;;;;;2091498;28;20017;-74
2022/10/18 03:46:39;;;;;;;3.92;2.58;;;17.60;99.90;;;;;;2091415;28;20492;-73
2022/10/18 03:47:40;;;;;;;5.00;2.80;;;17.70;99.90;;;;;;2090957;28;20407;-74
2022/10/18 03:48:40;;;;;;;5.75;3.00;;;17.60;99.90;;;;;;2091650;28;20052;-74
2022/10/18 03:49:41;;;;;;;5.35;3.03;;;17.60;99.90;;;;;;2090995;28;20037;-74
2022/10/18 03:50:42;;;;;;;3.78;2.72;;;17.60;99.90;;;;;;2091518;28;20473;-74
2022/10/18 03:51:43;;;;;;;5.82;3.53;;;17.60;99.90;;;;;;2091112;28;20029;-74
2022/10/18 03:52:43;;;;;;;8.25;3.05;;;17.60;99.90;;;;;;2090203;28;20044;-74
2022/10/18 03:53:44;;;;;;;4.47;2.95;;;17.70;99.90;;;;;;2090689;28;20392;-74
2022/10/18 03:54:44;;;;;;;6.03;3.13;;;17.60;99.90;;;;;;2089836;28;20047;-74
2022/10/18 03:55:50;;;;;;;9.52;3.40;;;17.60;99.90;;;;;;2092248;28;20487;-74
2022/10/18 03:56:50;;;;;;;4.57;3.50;;;17.60;99.90;;;;;;2091816;28;20149;-74
2022/10/18 03:57:51;;;;;;;4.93;3.63;;;17.60;99.90;;;;;;2089949;28;20092;-74
2022/10/18 03:58:51;;;;;;;3.42;3.20;;;17.60;99.90;;;;;;2093647;28;20112;-74
2022/10/18 03:59:52;;;;;;;8.43;4.03;;;17.60;99.90;;;;;;2090571;28;20103;-74
2022/10/18 04:00:53;;;;;;;3.80;3.20;;;17.60;99.90;;;;;;2090110;28;20025;-74
2022/10/18 04:01:54;;;;;;;4.97;3.20;;;17.70;99.90;;;;;;2091591;28;20021;-74
2022/10/18 04:02:54;;;;;;;5.03;3.50;;;17.60;99.90;;;;;;2091624;28;20029;-74
2022/10/18 04:03:55;;;;;;;4.47;3.80;;;17.70;99.90;;;;;;2092098;28;20055;-74
2022/10/18 04:04:57;;;;;;;6.47;4.03;;;17.60;99.90;;;;;;2090614;28;20025;-74
2022/10/18 04:05:59;;;;;;;6.35;3.70;;;17.70;99.90;;;;;;2089730;28;20044;-74
2022/10/18 04:07:00;;;;;;;4.00;3.00;;;17.70;99.90;;;;;;2092108;28;20622;-74
2022/10/18 04:08:00;;;;;;;3.58;3.20;;;17.70;99.90;;;;;;2091062;28;20396;-74
2022/10/18 04:09:01;;;;;;;5.93;3.97;;;17.60;99.90;;;;;;2090842;28;20620;-74
2022/10/18 04:10:01;;;;;;;5.45;3.67;;;17.60;99.90;;;;;;2090468;28;20158;-74
2022/10/18 04:11:09;;;;;;;4.97;3.22;;;17.60;99.90;;;;;;2089996;28;20070;-74
2022/10/18 04:12:10;;;;;;;6.63;3.30;;;17.60;99.90;;;;;;2091413;28;20059;-74
2022/10/18 04:13:10;;;;;;;4.93;3.40;;;17.60;99.90;;;;;;2094028;28;20032;-74
2022/10/18 04:14:11;;;;;;;5.03;3.00;;;17.60;99.90;;;;;;2094533;28;20033;-74
2022/10/18 04:15:12;;;;;;;5.32;3.03;;;17.60;99.90;;;;;;2090962;28;20024;-74
2022/10/18 04:16:12;;;;;;;5.20;3.00;;;17.60;99.90;;;;;;2089892;28;20029;-74
2022/10/18 04:17:13;;;;;;;4.35;3.28;;;17.60;99.90;;;;;;2086457;28;20060;-74
2022/10/18 04:18:13;;;;;;;5.97;3.10;;;17.60;99.90;;;;;;2084915;28;20025;-74
2022/10/18 04:19:14;;;;;;;5.15;3.20;;;17.60;99.90;;;;;;2091346;28;20159;-74
2022/10/18 04:20:15;;;;;;;4.43;3.00;;;17.60;99.90;;;;;;2091852;28;20021;-74
2022/10/18 04:21:15;;;;;;;6.85;3.72;;;17.60;99.90;;;;;;2088670;28;20112;-74
2022/10/18 04:22:16;;;;;;;7.30;3.17;;;17.60;99.90;;;;;;2089182;28;20029;-74
2022/10/18 04:23:16;;;;;;;4.13;3.72;;;17.60;99.90;;;;;;2092636;28;20557;-74
2022/10/18 04:24:17;;;;;;;6.20;3.15;;;17.60;99.90;;;;;;2095207;28;20119;-74
2022/10/18 04:25:17;;;;;;;5.40;3.50;;;17.60;99.90;;;;;;2090194;28;20022;-74
2022/10/18 04:26:18;;;;;;;8.48;3.70;;;17.60;99.90;;;;;;2090307;28;20631;-74
2022/10/18 04:27:19;;;;;;;6.03;3.85;;;17.60;99.90;;;;;;2091071;28;20031;-74
2022/10/18 04:28:19;;;;;;;5.82;3.60;;;17.60;99.90;;;;;;2089603;28;20021;-74
2022/10/18 04:29:20;;;;;;;3.97;3.20;;;17.60;99.90;;;;;;2092654;28;20062;-74
2022/10/18 04:30:20;;;;;;;5.05;3.47;;;17.60;99.90;;;;;;2090993;28;20115;-74
2022/10/18 04:31:21;;;;;;;4.75;3.30;;;17.60;99.90;;;;;;2091625;28;20025;-74
2022/10/18 04:32:22;;;;;;;8.50;4.00;;;17.60;99.90;;;;;;2090985;28;20654;-74
2022/10/18 04:33:22;;;;;;;3.67;3.38;;;17.60;99.90;;;;;;2089142;28;20073;-74
2022/10/18 04:34:23;;;;;;;9.75;3.33;;;17.60;99.90;;;;;;2089201;28;20025;-74
2022/10/18 04:35:24;;;;;;;4.50;3.20;;;17.60;99.90;;;;;;2090860;28;20116;-74
2022/10/18 04:36:25;;;;;;;5.10;3.63;;;17.60;99.90;;;;;;2094242;28;20051;-74
2022/10/18 04:37:25;;;;;;;4.03;3.15;;;17.60;99.90;;;;;;2092699;28;20020;-74
2022/10/18 04:38:26;;;;;;;6.75;4.13;;;17.60;99.90;;;;;;2091035;28;20017;-74
2022/10/18 04:39:27;;;;;;;5.68;3.40;;;17.60;99.90;;;;;;2089084;28;20392;-74
2022/10/18 04:40:27;;;;;;;3.85;2.95;;;17.60;99.90;;;;;;2092975;28;20108;-74
2022/10/18 04:41:28;;;;;;;2.42;2.25;;;17.60;99.90;;;;;;2093701;28;20067;-74
2022/10/18 04:42:28;;;;;;;3.75;3.15;;;17.60;99.90;;;;;;2089456;28;20096;-74
2022/10/18 04:43:29;;;;;;;5.25;4.00;;;17.60;99.90;;;;;;2089325;28;20021;-74
2022/10/18 04:44:29;;;;;;;4.05;3.47;;;17.60;99.90;;;;;;2089881;28;20028;-74
2022/10/18 04:45:30;;;;;;;7.07;3.72;;;17.60;99.90;;;;;;2090594;28;20071;-74
2022/10/18 04:46:30;;;;;;;4.35;3.97;;;17.60;99.90;;;;;;2090678;28;20054;-74
2022/10/18 04:47:31;;;;;;;7.00;3.72;;;17.60;99.90;;;;;;2089472;28;20119;-74
2022/10/18 04:48:32;;;;;;;5.70;3.72;;;17.60;99.90;;;;;;2089475;28;20021;-74
2022/10/18 04:49:32;;;;;;;4.60;4.20;;;17.60;99.90;;;;;;2091048;28;20772;-74
2022/10/18 04:50:33;;;;;;;6.20;4.30;;;17.60;99.90;;;;;;2090019;28;20031;-74
2022/10/18 04:51:33;;;;;;;6.28;4.40;;;17.60;99.90;;;;;;2089504;28;20055;-74
2022/10/18 04:52:34;;;;;;;8.02;4.50;;;17.60;99.90;;;;;;2092208;28;20372;-74
2022/10/18 04:53:34;;;;;;;4.88;4.20;;;17.60;99.90;;;;;;2088038;28;20013;-74
2022/10/18 04:54:35;;;;;;;4.35;3.95;;;17.60;99.90;;;;;;2092528;28;20103;-74
2022/10/18 04:55:35;;;;;;;5.93;3.92;;;17.60;99.90;;;;;;2087871;28;20029;-74
2022/10/18 04:56:36;;;;;;;4.35;3.90;;;17.60;99.90;;;;;;2090346;28;20380;-74
2022/10/18 04:57:37;;;;;;;4.57;4.18;;;17.60;99.90;;;;;;2092993;28;20043;-74
2022/10/18 04:58:37;;;;;;;5.28;3.65;;;17.60;99.90;;;;;;2090096;28;20021;-74
2022/10/18 04:59:38;;;;;;;6.00;4.22;;;17.60;99.90;;;;;;2091753;28;20979;-73
2022/10/18 05:00:38;;;;;;;5.20;3.80;;;17.60;99.90;;;;;;2090977;28;20051;-73
2022/10/18 05:01:39;;;;;;;6.53;4.07;;;17.60;99.90;;;;;;2090328;28;20028;-74
2022/10/18 05:02:40;;;;;;;10.20;5.15;;;17.60;99.90;;;;;;2088878;28;20020;-74
2022/10/18 05:03:40;;;;;;;4.47;3.33;;;17.60;99.90;;;;;;2090296;28;20054;-74
2022/10/18 05:04:41;;;;;;;4.78;4.13;;;17.60;99.90;;;;;;2091860;28;20787;-74
2022/10/18 05:05:42;;;;;;;6.95;4.35;;;17.60;99.90;;;;;;2090916;28;20494;-74
2022/10/18 05:06:42;;;;;;;4.32;3.53;;;17.60;99.90;;;;;;2090219;28;20021;-74
2022/10/18 05:07:43;;;;;;;6.60;4.10;;;17.60;99.90;;;;;;2089884;28;20683;-74
2022/10/18 05:08:43;;;;;;;5.80;4.70;;;17.60;99.90;;;;;;2090305;28;20100;-74
2022/10/18 05:09:44;;;;;;;6.68;5.15;;;17.60;99.90;;;;;;2089176;28;20524;-73
2022/10/18 05:10:45;;;;;;;6.60;4.00;;;17.60;99.90;;;;;;2090137;28;20028;-73
2022/10/18 05:11:46;;;;;;;4.65;4.20;;;17.60;99.90;;;;;;2091459;28;20033;-73
2022/10/18 05:12:46;;;;;;;4.25;3.60;;;17.60;99.90;;;;;;2092153;28;20477;-74
2022/10/18 05:13:47;;;;;;;3.63;3.33;;;17.60;99.90;;;;;;2089092;28;20044;-74
2022/10/18 05:14:47;;;;;;;8.48;4.22;;;17.60;99.90;;;;;;2090576;28;20074;-73
2022/10/18 05:15:48;;;;;;;7.32;4.97;;;17.60;99.90;;;;;;2090499;28;20493;-73
2022/10/18 05:16:48;;;;;;;6.68;5.00;;;17.60;99.90;;;;;;2089617;28;20024;-74
2022/10/18 05:17:49;;;;;;;5.70;4.65;;;17.60;99.90;;;;;;2090092;28;20043;-73
2022/10/18 05:18:50;;;;;;;10.55;4.18;;;17.60;99.90;;;;;;2090063;28;20028;-73
2022/10/18 05:19:50;;;;;;;5.65;4.80;;;17.60;99.90;;;;;;2089647;28;20048;-74
2022/10/18 05:20:51;;;;;;;7.10;4.13;;;17.60;99.90;;;;;;2091843;28;20476;-73
2022/10/18 05:21:51;;;;;;;5.13;4.20;;;17.60;99.90;;;;;;2090724;28;20439;-73
2022/10/18 05:22:52;;;;;;;8.18;5.13;;;17.60;99.90;;;;;;2090815;28;20033;-73
2022/10/18 05:23:55;;;;;;;12.10;4.78;;;17.60;99.90;;;;;;2090633;28;20033;-73
2022/10/18 05:24:56;;;;;;;5.20;4.70;;;17.60;99.90;;;;;;2090694;28;20037;-73
2022/10/18 05:26:03;;;;;;;14.35;5.35;;;17.60;99.90;;;;;;2090144;28;20016;-73
2022/10/18 05:27:04;;;;;;;5.28;4.68;;;17.60;99.90;;;;;;2089815;28;20444;-73
2022/10/18 05:28:04;;;;;;;7.90;4.95;;;17.60;99.90;;;;;;2089041;28;20047;-73
2022/10/18 05:29:05;;;;;;;6.85;5.95;;;17.60;99.90;;;;;;2090868;28;20100;-73
2022/10/18 05:30:06;;;;;;;6.32;5.45;;;17.60;99.90;;;;;;2089532;28;20116;-73
2022/10/18 05:31:08;;;;;;;7.28;5.40;;;17.60;99.90;;;;;;2089165;28;20086;-74